Observations at @ca for Latest


KACV 180853Z AUTO 00000KT 10SM FEW008 SCT013 OVC070 15/14 A2991 RMK AO2 SLP130
 60002 T01500144 56005=
KACV 180900Z AUTO 00000KT 10SM BKN008 BKN013 OVC070 15/14 A2991 RMK AO2
 T01500139=
KACV 180917Z AUTO 12004KT 10SM SCT009 OVC070 16/14 A2990 RMK AO2 T01560139=
KACV 180853Z AUTO 00000KT 10SM FEW008 SCT013 OVC070 15/14 A2991 RMK AO2 SLP130
 60002 T01500144 56005=
KAPC 180854Z AUTO 25007KT 10SM CLR 16/14 A2995 RMK AO2 SLP134 T01560139 55002=
KAPC 180944Z AUTO 25004KT 10SM BKN026 16/14 A2994 RMK AO2 T01560139=
KAVX 180851Z AUTO 00000KT 10SM CLR 20/07 A2994 RMK AO2 SLP115 T02000067 56004=
KBAB 180858Z AUTO 14010KT 10SM BKN070 16/10 A2989 RMK AO2 SLP124 T01620098
 58002 $=
KBFL 180854Z AUTO 10004KT 10SM CLR 19/08 A2994 RMK AO2 SLP133 T01940083 55002=
KBIH 180856Z AUTO 31005KT 10SM CLR 07/M03 A2997 RMK AO2 SLP115 T00671028 50000=
KBLH 180852Z AUTO 22005KT 10SM CLR 27/03 A2979 RMK AO2 SLP081 T02670028 55000=
KBLU 180852Z AUTO 15006KT 10SM CLR 09/03 A3006 RMK AO2 SLP126 T00940028 56009=
KBUR 180853Z 09003KT 10SM CLR 19/15 A2991 RMK AO2 SLP115 T01940150 53000=
KBYS 180858Z AUTO 33010KT 10SM CLR 20/00 A2990 RMK AO2 SLP102 T01991002 55003 $=
KCCR 180853Z AUTO 21010KT 10SM CLR 17/13 A2996 RMK AO2 SLP132 T01720128 55002=
KCEC 180856Z AUTO 16008KT 10SM OVC005 16/15 A2989 RMK AO2 SLP122 T01560150
 56006=
KCIC 180855Z AUTO 16010KT 10SM BKN070 BKN085 20/05 A2989 RMK AO1=
KCIC 180915Z AUTO 15014KT 10SM BKN085 BKN110 19/06 A2988 RMK AO1=
KCIC 180935Z AUTO 15015KT 10SM BKN085 BKN110 19/07 A2988 RMK AO1=
KCMA 180855Z AUTO 00000KT 10SM CLR 17/12 A2988 RMK AO2 SLP128 T01670122 55002=
KCNO 180853Z AUTO 00000KT 8SM CLR 18/14 A2992 RMK AO2 SLP127 T01780144 58001 $=
KCQT 180852Z AUTO 00000KT 10SM CLR 21/16 A2989 RMK AO2 SLP120 T02060156 55002=
KCRQ 180853Z AUTO 00000KT 10SM CLR 19/16 A2990 RMK AO2 SLP123 T01890156 55003=
KCZZ 180852Z AUTO 04005KT 09/03 A2995 RMK AO1 SLP111 T00940028 55002=
KDAG 180850Z AUTO 28009KT 10SM CLR 19/04 A2991 RMK AO2 SLP107 T01890039 58001=
KEDW 180858Z 20004KT 50SM CLR 14/05 A2992 RMK AO2A SLP115 T01430051 55005=
KEED 180856Z AUTO 12009KT 10SM CLR 26/M04 A2981 RMK AO2 SLP062 T02611044 55000
 $=
KFAT 180853Z 32006KT 10SM CLR 18/08 A2994 RMK AO2 SLP135 T01780083 55002=
KFCH 180855Z AUTO 29004KT 10SM CLR 17/09 A2995 RMK A01=
KFCH 180915Z AUTO 28005KT 10SM CLR 17/09 A2995 RMK A01=
KFCH 180935Z AUTO 29005KT 10SM CLR 16/09 A2994 RMK A01=
KFOT 180855Z AUTO 13006KT 10SM OVC060 14/14 A2992 RMK AO1=
KFOT 180915Z AUTO 13005KT 10SM SCT060 OVC065 14/14 A2992 RMK AO1=
KFOT 180935Z AUTO 12005KT 10SM OVC060 14/14 A2992 RMK AO1=
KFUL 180853Z AUTO 00000KT 10SM CLR 19/15 A2989 RMK AO2 SLP120 T01940150 55001=
KHHR 180853Z AUTO 00000KT 10SM CLR 20/15 A2990 RMK AO2 SLP124 T02000150 55001=
KHJO 180853Z AUTO 32005KT 10SM CLR 17/09 A2994 RMK AO2 SLP139 T01670094 55002=
KHWD 180854Z AUTO 24004KT 10SM OVC013 18/15 A2997 RMK AO2 SLP158 6////
 T01780150 55004 PNO=
KHWD 180927Z AUTO 26004KT 10SM SCT013 17/14 A2997 RMK AO2 T01720144 PNO=
KIPL 180853Z AUTO 32004KT 10SM CLR 26/01 A2977 RMK AO2 SLP081 T02560011 55003=
KIZA 180855Z AUTO 02003KT 10SM CLR 08/06 A2993 RMK AO2=
KIZA 180915Z AUTO 00000KT 10SM CLR 08/06 A2993 RMK AO2=
KIZA 180935Z AUTO 00000KT 10SM CLR 08/06 A2993 RMK AO2=
KLAX 180853Z 07003KT 10SM FEW015 FEW140 20/16 A2990 RMK AO2 SLP122 T02000156
 55001 $=
KLGB 180853Z 00000KT 10SM CLR 20/16 A2990 RMK AO2 SLP123 T02000161 55002=
KLPC 180856Z AUTO 07004KT 10SM CLR 11/09 A2993 RMK AO2 SLP136 T01060094 55003=
KLVK 180853Z AUTO 20006KT 10SM BKN019 17/14 A2997 RMK AO2 SLP144 T01670139
 58004=
KMAE 180853Z AUTO 30004KT 10SM CLR 15/08 A2994 RMK AO2 SLP137 T01500083 55002=
KMCC 180900Z AUTO 14010KT 10SM CLR 16/13 A2994 RMK AO2=
KMCC 180920Z AUTO 14010KT 10SM CLR 16/13 A2994 RMK AO2=
KMCC 180940Z AUTO 14011KT 10SM CLR 16/13 A2994 RMK AO2=
KMCE 180853Z AUTO 35007KT 10SM CLR 17/10 A2994 RMK AO2 SLP137 T01670100 55002=
KMER 180915Z AUTO 36005KT 10SM CLR 14/12 A2994 RMK AO1=
KMHS 180856Z AUTO VRB03KT 10SM FEW019 SCT024 OVC040 10/08 A2991 RMK AO2
 RAE18B31E43 SLP130 P0001 60003 T01000083 56007=
KMHS 180903Z AUTO 00000KT 10SM -RA SCT019 BKN024 OVC038 10/08 A2991 RMK AO2
 RAB0857 P0000 T01000083=
KMHS 180903Z AUTO 00000KT 10SM -RA SCT019 BKN024 OVC038 10/08A2991=
KMHS 180856Z AUTO VRB03KT 10SM FEW019 SCT024 OVC040 10/08 A2991 RMK AO2
 RAE18B31E43 SLP130 P0001 60003 T01000083 56007=
KMHS 180942Z AUTO 00000KT 10SM FEW007 BKN013 OVC022 10/09 A2990=
KMHS 180942Z AUTO 00000KT 10SM FEW007 BKN013 OVC022 10/09 A2990 RMK AO2
 RAB0857E10 P0000 T01000089=
KMHV 180840Z AUTO 30009KT 10SM CLR 17/06 A2995 RMK A01=
KMHV 180900Z AUTO 30007KT 10SM CLR 17/05 A2994 RMK A01=
KMHV 180920Z AUTO 00000KT 10SM CLR 16/06 A2995 RMK A01=
KMMH 180855Z AUTO 00000KT 10SM CLR 02/M04 A3013 RMK AO2 T00151042=
KMMH 180915Z AUTO 00000KT 10SM CLR 01/M04 A3012 RMK AO2 T00091043=
KMMH 180615Z AUTO 01004KT 10SM CLR 03/M03 A3015 RMK AO2 T00331032=
KMMH 180855Z AUTO 00000KT 10SM CLR 02/M04 A3013 RMK AO2 T00151042=
KMMH 180535Z AUTO 00000KT 10SM CLR 05/M02 A3015 RMK AO2 T00521022=
KMMH 180935Z AUTO 31003KT 10SM CLR 01/M05 A3012 RMK AO2 T00081049=
KMOD 180853Z AUTO 36004KT 10SM CLR 16/11 A2994 RMK AO2 SLP139 T01610111 53001 $=
KMRY 180854Z AUTO 16003KT 10SM CLR 15/09 A2999 RMK AO2 SLP165 T01500094 56005=
KMYF 180853Z AUTO 00000KT 10SM CLR 18/16 A2992 RMK AO2 SLP126 T01780156 55002=
KMYV 180853Z AUTO 14011KT 10SM CLR 16/11 A2991 RMK AO2 SLP131 T01560111 58001 $=
KNFG 180855Z AUTO 06005KT 10SM OVC010 17/14 A2991 RMK AO2 SLP126 T01670144
 56003=
KNFG 180924Z AUTO 05004KT 10SM BKN009 17/14 A2991 RMK AO2 T01670144=
KNFG 180855Z AUTO 06005KT 10SM OVC010 17/14 A2991 RMK AO2 SLP126 T01670144
 56003=
KNFG 180924Z AUTO 05004KT 10SM BKN009 17/14 A2991 RMK AO2 T01670144=
KNFG 180936Z AUTO 05004KT 10SM SCT009 16/14 A2990 RMK AO2 T01610144=
KNID 180856Z AUTO 21010KT 10SM CLR 19/05 A2989 RMK AO2 SLP107 T01890050 56005 $=
KNJK 180856Z AUTO 27019KT 10SM CLR 27/M03 A2978 RMK AO2 SLP101 T02721033 58004
 $=
KNKX 180855Z 09003KT 9SM CLR 15/12 A2991 RMK AO2 SLP124 T01500122 55003=
KNLC 180856Z AUTO 33008KT 10SM CLR 14/06 A2994 RMK AO2 SLP139 T01390056 58002=
KNRS 180856Z AUTO 10SM OVC014 A2991 RMK AO2 SLP129 56002 $=
KNRS 180501Z 28003KT 10SM BKN012 20/17 A2993 RMK AO2 T02000172 $=
KNSI 180856Z AUTO 29015KT 10SM CLR A2990 RMK AO2 SLPNO 57003 $=
KNTD 180857Z AUTO 04003KT 10SM CLR 15/13 A2989 RMK AO2 SLP123 T01500133 55001
 CHINO N VISNO N $=
KNUC 180856Z AUTO 25007KT CLR 17/ A2993 RMK AO2 SLP131 T0167 55002 $=
KNUQ 180856Z A2999 RMK AO2 SLP160 57003 PWINO $=
KNXP 180856Z AUTO 29009KT 10SM CLR 21/04 A2997 RMK AO2 SLP112 T02060039 53000=
KNZY 180852Z 00000KT 10SM BKN017 18/16 A2990 RMK AO2 SLP126 T01830161 55002=
KO54 180855Z AUTO 00000KT 10SM FEW013 BKN036 OVC065 13/12 A2993 RMK AO1=
KO54 180915Z AUTO 17004KT 10SM BKN035 OVC045 12/12 A2992 RMK AO1=
KO54 180935Z AUTO 00000KT 10SM FEW025 BKN033 OVC042 12/11 A2991 RMK AO1=
KOAK 180853Z 26010KT 10SM FEW014 18/15 A2997 RMK AO2 SLP149 T01780150 55004=
KONT 180853Z 00000KT 10SM CLR 19/14 A2992 RMK AO2 SLP115 T01890144 58001=
KOVE 180853Z AUTO 16010KT 10SM FEW070 17/09 A2991 RMK AO2 SLP129 T01670094
 55002=
KOXR 180851Z AUTO 05003KT 10SM CLR 17/12 A2989 RMK AO2 SLP119 T01720122 55002=
KPMD 180853Z AUTO 00000KT 10SM CLR 13/04 A2996 RMK AO2 SLP123 T01330039 57004=
KPRB 180853Z AUTO 00000KT 10SM CLR 13/08 A2997 RMK AO2 SLP142 T01330078 55003=
KPSP 180853Z 00000KT 10SM CLR 25/05 A2982 RMK AO2 SLP093 T02500050 53001=
KPTV 180856Z AUTO RMK AO2 SLPNO 6//// PWINO FZRANO $=
KRAL 180853Z AUTO 00000KT 10SM CLR 18/15 A2991 RMK AO2 SLP114 T01830150 58001=
KRBL 180854Z AUTO 22006KT 10SM BKN070 OVC085 19/09 A2987 RMK AO2 SLP113
 T01890094 53001=
KRDD 180853Z AUTO 35006KT 10SM OVC060 17/14 A2988 RMK AO2 RAE46 SLP114 P0006
 60007 T01670139 53007=
KRIV 180858Z AUTO 00000KT 10SM CLR 14/13 A2993 RMK AO2 SLP124 T01360125 55002=
KRNM 180853Z AUTO 00000KT 10SM CLR 11/08 A2994 RMK AO2 SLP124 T01110078 55003=
KSAC 180853Z AUTO 14005KT 10SM CLR 16/13 A2992 RMK AO2 SLP132 T01610133 55000=
KSAN 180851Z 00000KT 10SM FEW014 18/16 A2992 RMK AO2 SLP133 T01830161 55002=
KSBA 180853Z AUTO 00000KT 10SM CLR 16/11 A2988 RMK AO2 SLP117 T01560111 55002=
KSBD 180900Z AUTO 00000KT 10SM CLR 20/09 A2993 RMK AO2 T02000092=
KSBD 180920Z AUTO 00000KT 10SM CLR 20/11 A2993 RMK AO2 T01960105=
KSBD 180940Z AUTO 00000KT 10SM CLR 20/12 A2992 RMK AO2 T01950119=
KSBP 180856Z AUTO 12003KT 10SM CLR 13/09 A2993 RMK AO2 SLP132 T01280089 55003=
KSCK 180855Z AUTO 26008KT 10SM CLR 17/13 A2994 RMK AO2 SLP139 T01720128 55004=
KSDB 180853Z AUTO 31008KT 10SM CLR 12/04 A3005 RMK AO2 SLP136 T01170044 55002 $=
KSDM 180853Z AUTO 00000KT 8SM SCT006 17/15 A2991 RMK AO2 SLP126 T01670150 55003=
KSDM 180906Z AUTO 00000KT 9SM BKN006 17/15 A2992 RMK AO2 T01670150=
KSDM 180853Z AUTO 00000KT 8SM SCT006 17/15 A2991 RMK AO2 SLP126 T01670150 55003=
KSEE 180855Z AUTO 30003KT 10SM 16/14 A2991 RMK AO2=
KSEE 180915Z AUTO 00000KT 10SM CLR 16/13 A2991 RMK AO2=
KSEE 180935Z AUTO 00000KT 10SM CLR 16/14 A2990 RMK AO2=
KSFO 180856Z 29005KT 10SM FEW015 16/14 A2997 RMK AO2 SLP150 T01610139 55003=
KSFO 180934Z 00000KT 10SM BKN019 BKN026 17/14 A2997 RMK AO2 T01670144=
KSIY 180853Z AUTO 35004KT 9SM -RA SCT030 BKN043 OVC050 13/11 A2990 RMK AO2
 RAB32 SLP123 P0001 60006 T01280111 55008=
KSIY 180933Z AUTO 06006KT 10SM BKN022 OVC030 13/11 A2988 RMK AO2 RAE0858 P0000
 T01280111=
KSJC 180853Z AUTO 00000KT 10SM CLR 15/11 A2998 RMK AO2 SLP151 T01500111 56005 $=
KSLI 180858Z AUTO 00000KT 10SM CLR 18/15 A2989 RMK AO2 SLP125 T01760152 56002=
KSMF 180853Z 13008KT 10SM FEW250 16/13 A2991 RMK AO2 SLP127 T01560128 57000=
KSMO 180851Z AUTO 00000KT 10SM CLR 18/16 A2990 RMK AO2 SLP123 T01830161 55001=
KSMX 180851Z AUTO 17005KT 7SM CLR 12/09 A2993 RMK AO2 SLP134 T01220089 55004 $=
KSNA 180853Z AUTO 13003KT 10SM CLR 20/16 A2990 RMK AO2 SLP122 T02000161 55001=
KSNS 180853Z AUTO 35004KT 10SM CLR 14/10 A2998 RMK AO2 SLP160 T01440100 55002=
KSTS 180853Z AUTO 14003KT 10SM BKN027 OVC034 14/13 A2995 RMK AO2 SLP136
 T01440128 58005=
KSUU 180858Z AUTO 22012KT 10SM CLR 16/13 A2992 RMK AO2 SLP138 T01590128 50002 $=
KSVE 180855Z AUTO 23011G17KT 10SM OVC100 15/M02 A2995 RMK AO2=
KSVE 180915Z AUTO 21010KT 10SM BKN085 OVC110 15/M03 A2995 RMK AO2=
KSVE 180415Z AUTO 35006KT 10SM BKN050 OVC075 15/M01 A3001 RMK AO2=
KSVE 180935Z AUTO 21006KT 10SM SCT085 OVC110 14/M03 A2995 RMK AO2=
KTRK 180855Z AUTO 03003KT 10SM CLR 02/M02 A3006 RMK AO2=
KTRK 180915Z AUTO 03003KT 10SM CLR 02/M02 A3005 RMK AO2=
KTRK 180935Z AUTO 00000KT 10SM CLR 03/M03 A3005 RMK AO2=
KTRM 180852Z AUTO 32008KT 10SM CLR 27/11 A2977 RMK AO2 SLP082 T02670106 53005=
KTVL 180853Z AUTO 24004KT 10SM CLR 08/M06 A3007 RMK AO2 SLP139 T00781061 55006=
KUKI 180856Z AUTO 00000KT 10SM OVC021 16/11 A2993 RMK AO2 SLP129 T01560106
 56015=
KVBG 180858Z AUTO 14004KT 8SM CLR 10/09 A2993 RMK AO2 SLP137 T01000092 55002=
KVIS 180856Z AUTO 30003KT 10SM 15/11 A2994 RMK AO2 SLP145 T01500106 55002 $=
KVNY 180851Z 00000KT 10SM CLR 19/15 A2990 RMK AO2 SLP117 T01940150 53000=
KWJF 180856Z AUTO 27011KT 10SM CLR 16/04 A2995 RMK AO2 SLP129 T01610039 56003=